Time;durP1;ratioP1;P1;durP2;ratioP2;P2;SDS_P1;SDS_P2;PMS_P1;PMS_P2;Temp;Humidity;BMP_temperature;BMP_pressure;BME280_temperature;BME280_humidity;BME280_pressure;Samples;Min_cycle;Max_cycle;Signal;HPM_P1;HPM_P2
2022/09/19 00:01:37;;;;;;;8.45;1.75;;;13.50;79.40;;;;;;5097569;28;20050;-77
2022/09/19 00:04:13;;;;;;;8.20;2.00;;;13.50;79.20;;;;;;5114431;28;20472;-77
2022/09/19 00:06:40;;;;;;;13.85;2.33;;;13.50;79.10;;;;;;5114488;28;20040;-77
2022/09/19 00:09:11;;;;;;;10.35;2.70;;;13.50;79.10;;;;;;5097305;28;20566;-77
2022/09/19 00:11:39;;;;;;;10.35;2.03;;;13.40;79.20;;;;;;5114210;28;20130;-77
2022/09/19 00:14:06;;;;;;;10.23;2.25;;;13.50;79.80;;;;;;5097128;28;20052;-77
2022/09/19 00:16:38;;;;;;;12.25;1.98;;;13.40;80.40;;;;;;5114362;28;20031;-77
2022/09/19 00:19:06;;;;;;;14.73;2.60;;;13.50;81.30;;;;;;5114347;28;20126;-77
2022/09/19 00:21:35;;;;;;;19.95;4.28;;;13.50;82.20;;;;;;5114064;28;20046;-78
2022/09/19 00:26:45;;;;;;;;;;;13.40;84.70;;;;;;5114449;28;20090;-78
2022/09/19 00:29:12;;;;;;;14.27;2.78;;;13.30;85.30;;;;;;5114212;28;19966;-77
2022/09/19 00:31:38;;;;;;;12.65;2.70;;;13.10;85.40;;;;;;5113899;28;20105;-78
2022/09/19 00:34:06;;;;;;;9.40;2.30;;;13.00;86.10;;;;;;5113709;28;20055;-77
2022/09/19 00:36:33;;;;;;;18.05;2.97;;;13.00;86.20;;;;;;5113719;28;20043;-77
2022/09/19 00:38:59;;;;;;;9.90;2.35;;;13.00;86.20;;;;;;5096943;28;20048;-77
2022/09/19 00:41:26;;;;;;;19.25;3.13;;;13.00;86.30;;;;;;5096662;28;20543;-77
2022/09/19 00:43:56;;;;;;;15.52;2.70;;;13.00;85.90;;;;;;5096900;28;20058;-77
2022/09/19 00:46:24;;;;;;;12.63;2.85;;;12.90;85.70;;;;;;5113672;28;20035;-77
2022/09/19 00:49:01;;;;;;;12.70;2.17;;;12.90;85.60;;;;;;5113804;28;20047;-77
2022/09/19 00:51:34;;;;;;;16.50;2.35;;;12.90;85.30;;;;;;5113670;28;20050;-77
2022/09/19 00:54:07;;;;;;;12.77;3.63;;;12.80;85.10;;;;;;5113248;28;20126;-77
2022/09/19 00:56:34;;;;;;;17.58;3.78;;;12.80;84.80;;;;;;5113493;28;20118;-77
2022/09/19 00:59:02;;;;;;;10.40;3.00;;;12.80;84.50;;;;;;5096672;28;20502;-77
2022/09/19 01:01:28;;;;;;;10.25;2.15;;;12.90;84.00;;;;;;5113437;28;20365;-77
2022/09/19 01:03:55;;;;;;;11.10;2.40;;;12.90;84.00;;;;;;5113270;28;20039;-77
2022/09/19 01:07:03;;;;;;;13.55;3.13;;;13.00;84.20;;;;;;5113222;28;20055;-77
2022/09/19 01:09:35;;;;;;;13.23;3.80;;;13.00;84.00;;;;;;5096224;28;20035;-77
2022/09/19 01:12:19;;;;;;;9.65;1.98;;;13.00;84.20;;;;;;5113362;28;20455;-77
2022/09/19 01:15:20;;;;;;;11.05;1.95;;;13.00;84.30;;;;;;5113097;28;20040;-77
2022/09/19 01:17:58;;;;;;;17.30;2.65;;;13.00;84.40;;;;;;5045029;28;20061;-77
2022/09/19 01:20:32;;;;;;;10.02;2.22;;;13.20;84.00;;;;;;5113112;28;20042;-77
2022/09/19 01:23:17;;;;;;;;;;;13.20;83.70;;;;;;5113463;28;20046;-77
2022/09/19 01:26:06;;;;;;;13.20;2.45;;;13.30;83.00;;;;;;5112866;28;19964;-77
2022/09/19 01:28:43;;;;;;;16.13;2.45;;;13.20;83.10;;;;;;5095773;28;20043;-77
2022/09/19 01:31:17;;;;;;;6.85;2.17;;;13.30;83.30;;;;;;5112754;28;20048;-77
2022/09/19 01:33:52;;;;;;;12.13;2.92;;;13.30;83.10;;;;;;5112759;28;20449;-77
2022/09/19 01:36:23;;;;;;;14.80;2.70;;;13.30;83.00;;;;;;5112892;28;20040;-77
2022/09/19 01:38:51;;;;;;;13.38;2.30;;;13.30;82.70;;;;;;5112898;28;20075;-77
2022/09/19 01:41:19;;;;;;;12.88;2.83;;;13.30;82.70;;;;;;5095705;28;20071;-77
2022/09/19 01:43:45;;;;;;;15.02;2.88;;;13.30;82.80;;;;;;5112949;28;20047;-77
2022/09/19 01:46:40;;;;;;;12.30;2.53;;;13.30;82.60;;;;;;5079077;28;20055;-77
2022/09/19 01:49:35;;;;;;;13.55;2.83;;;13.40;82.50;;;;;;5104829;28;20047;-77
2022/09/19 01:52:18;;;;;;;16.17;2.50;;;13.40;82.30;;;;;;5112530;28;20058;-77
2022/09/19 01:55:02;;;;;;;8.18;1.95;;;13.40;82.20;;;;;;5112510;28;20057;-77
2022/09/19 01:57:52;;;;;;;8.13;3.03;;;13.40;82.20;;;;;;5112387;28;20039;-77
2022/09/19 02:00:22;;;;;;;11.80;2.08;;;13.30;82.30;;;;;;5112451;28;20078;-77
2022/09/19 02:03:03;;;;;;;12.00;2.50;;;13.30;82.10;;;;;;5112309;28;20035;-77
2022/09/19 02:05:49;;;;;;;9.77;2.20;;;13.30;82.10;;;;;;5095693;28;20047;-77
2022/09/19 02:08:45;;;;;;;11.75;2.63;;;13.30;81.90;;;;;;5112437;28;20044;-77
2022/09/19 02:11:17;;;;;;;11.77;2.60;;;13.30;81.30;;;;;;5108198;28;20515;-77
2022/09/19 02:13:48;;;;;;;13.15;2.88;;;13.30;81.20;;;;;;5112375;28;20127;-77
2022/09/19 02:17:00;;;;;;;12.15;2.35;;;13.40;80.90;;;;;;5112471;28;20032;-76
2022/09/19 02:19:50;;;;;;;8.77;3.08;;;13.40;80.40;;;;;;5089766;28;20433;-77
2022/09/19 02:22:31;;;;;;;10.43;2.47;;;13.50;80.00;;;;;;5095428;28;20108;-77
2022/09/19 02:25:05;;;;;;;12.13;2.38;;;13.50;79.70;;;;;;5112064;28;20039;-77
2022/09/19 02:27:38;;;;;;;6.40;1.38;;;13.40;79.70;;;;;;5114007;28;20364;-77
2022/09/19 02:30:08;;;;;;;8.80;2.03;;;13.40;79.70;;;;;;5116168;28;20138;-76
2022/09/19 02:32:35;;;;;;;14.55;2.10;;;13.30;79.50;;;;;;5115755;28;20101;-76
2022/09/19 02:35:02;;;;;;;8.27;1.58;;;13.30;79.20;;;;;;5098771;28;20096;-77
2022/09/19 02:37:41;;;;;;;10.13;2.17;;;13.30;79.00;;;;;;5099381;28;20365;-76
2022/09/19 02:40:32;;;;;;;11.05;1.65;;;13.30;78.80;;;;;;5116187;28;20043;-77
2022/09/19 02:43:28;;;;;;;10.85;2.53;;;13.30;78.70;;;;;;5115864;28;20047;-77
2022/09/19 02:45:59;;;;;;;8.70;1.98;;;13.30;78.60;;;;;;5099358;28;20071;-76
2022/09/19 02:49:04;;;;;;;11.45;2.03;;;13.20;78.70;;;;;;5115966;28;20043;-76
2022/09/19 02:51:34;;;;;;;;;;;13.30;78.90;;;;;;5092947;28;20229;-77
2022/09/19 02:54:08;;;;;;;6.38;2.20;;;13.40;78.60;;;;;;5098689;28;19969;-76
2022/09/19 02:56:37;;;;;;;6.03;1.70;;;13.40;78.60;;;;;;5115570;28;20088;-76
2022/09/19 02:59:12;;;;;;;10.30;1.95;;;13.50;78.30;;;;;;5115575;28;20036;-76
2022/09/19 03:01:41;;;;;;;11.60;2.45;;;13.50;78.50;;;;;;5115584;28;20456;-76
2022/09/19 03:04:14;;;;;;;14.00;1.63;;;13.40;78.60;;;;;;5115735;28;20040;-76
2022/09/19 03:07:12;;;;;;;6.68;1.30;;;13.40;78.40;;;;;;5115937;28;20399;-77
2022/09/19 03:09:41;;;;;;;8.23;1.30;;;13.40;78.20;;;;;;5098551;28;20036;-77
2022/09/19 03:12:28;;;;;;;9.75;2.95;;;13.40;78.20;;;;;;5098867;28;20070;-76
2022/09/19 03:14:58;;;;;;;8.35;1.42;;;13.40;78.10;;;;;;5115495;28;20097;-77
2022/09/19 03:17:41;;;;;;;11.18;1.83;;;13.30;78.00;;;;;;5115430;28;20047;-77
2022/09/19 03:20:11;;;;;;;6.85;1.50;;;13.30;77.50;;;;;;5115283;28;20071;-77
2022/09/19 03:22:39;;;;;;;9.10;1.50;;;13.30;77.40;;;;;;5115498;28;20373;-77
2022/09/19 03:25:06;;;;;;;9.25;1.85;;;13.30;77.30;;;;;;5115067;28;20039;-77
2022/09/19 03:27:32;;;;;;;5.05;1.55;;;13.20;77.30;;;;;;5098310;28;20081;-77
2022/09/19 03:29:58;;;;;;;8.07;1.67;;;13.20;77.40;;;;;;5114970;28;20043;-77
2022/09/19 03:32:26;;;;;;;9.50;1.52;;;13.20;77.50;;;;;;5115058;28;20039;-77
2022/09/19 03:34:54;;;;;;;34.63;4.97;;;13.20;77.70;;;;;;5114657;28;20063;-77
2022/09/19 03:37:21;;;;;;;7.90;1.90;;;13.20;78.10;;;;;;5097893;28;20115;-77
2022/09/19 03:39:47;;;;;;;13.63;2.42;;;13.20;78.60;;;;;;5114012;28;20491;-77
2022/09/19 03:42:14;;;;;;;8.85;1.55;;;13.30;79.40;;;;;;5114960;28;20044;-77
2022/09/19 03:44:39;;;;;;;6.43;1.63;;;13.40;80.20;;;;;;5115134;28;20392;-77
2022/09/19 03:47:05;;;;;;;14.45;2.35;;;13.40;80.70;;;;;;5114684;28;20040;-77
2022/09/19 03:49:31;;;;;;;12.70;2.53;;;13.30;80.70;;;;;;5114681;28;20043;-77
2022/09/19 03:51:59;;;;;;;7.38;1.42;;;13.30;81.10;;;;;;5114962;28;20046;-77
2022/09/19 03:54:25;;;;;;;9.23;2.13;;;13.30;81.80;;;;;;5098024;28;20509;-77
2022/09/19 03:56:52;;;;;;;10.55;2.38;;;13.20;81.90;;;;;;5114506;28;20042;-77
2022/09/19 03:59:18;;;;;;;11.50;1.90;;;13.10;82.10;;;;;;5114318;28;20050;-77
2022/09/19 04:01:44;;;;;;;11.00;2.00;;;13.10;82.30;;;;;;5114547;28;20040;-77
2022/09/19 04:04:10;;;;;;;8.25;1.65;;;13.00;82.50;;;;;;5114529;28;20048;-77
2022/09/19 04:06:36;;;;;;;13.85;2.15;;;13.00;82.50;;;;;;5114686;28;20078;-77
2022/09/19 04:09:03;;;;;;;8.68;3.67;;;13.00;82.60;;;;;;5114443;28;20460;-77
2022/09/19 04:11:29;;;;;;;7.40;1.60;;;13.00;82.70;;;;;;5114292;28;20079;-77
2022/09/19 04:13:55;;;;;;;11.63;3.17;;;13.00;82.60;;;;;;5114441;28;20390;-77
2022/09/19 04:16:24;;;;;;;15.80;2.42;;;12.90;82.40;;;;;;5097702;28;20055;-77
2022/09/19 04:18:50;;;;;;;10.40;1.85;;;12.90;81.90;;;;;;5114250;28;20035;-77
2022/09/19 04:21:17;;;;;;;11.55;1.73;;;12.90;81.60;;;;;;5114107;28;20495;-77
2022/09/19 04:23:43;;;;;;;11.88;2.10;;;12.90;81.20;;;;;;5113877;28;20035;-77
2022/09/19 04:26:13;;;;;;;7.35;1.38;;;13.00;80.80;;;;;;5113898;28;20042;-77
2022/09/19 04:28:40;;;;;;;10.57;1.70;;;12.90;80.40;;;;;;5114238;28;20036;-77
2022/09/19 04:31:08;;;;;;;10.68;2.08;;;13.00;80.10;;;;;;5113809;28;20035;-77
2022/09/19 04:33:34;;;;;;;9.70;2.20;;;13.00;79.80;;;;;;5113536;28;20059;-77
2022/09/19 04:36:00;;;;;;;11.82;2.08;;;13.00;79.30;;;;;;5114127;28;20104;-77
2022/09/19 04:38:30;;;;;;;8.02;1.60;;;13.00;79.10;;;;;;5113726;28;20452;-77
2022/09/19 04:40:57;;;;;;;7.65;1.55;;;13.00;79.20;;;;;;5113810;28;20418;-77
2022/09/19 04:43:24;;;;;;;10.98;1.52;;;13.00;78.50;;;;;;5096872;28;20035;-77
2022/09/19 04:45:50;;;;;;;10.80;1.48;;;13.00;78.00;;;;;;5113855;28;20421;-77
2022/09/19 04:48:17;;;;;;;7.50;1.58;;;13.00;78.00;;;;;;5113571;28;20044;-77
2022/09/19 04:50:45;;;;;;;8.25;1.65;;;13.00;77.90;;;;;;5112460;28;20051;-77
2022/09/19 04:53:16;;;;;;;11.50;1.67;;;13.00;77.70;;;;;;5113382;28;20122;-77
2022/09/19 04:55:42;;;;;;;11.13;2.75;;;13.00;77.60;;;;;;5113544;28;20050;-77
2022/09/19 04:58:08;;;;;;;9.82;2.30;;;13.00;78.10;;;;;;5113707;28;20040;-77
2022/09/19 05:00:38;;;;;;;7.35;2.13;;;12.90;78.50;;;;;;5113332;28;20380;-77
2022/09/19 05:03:09;;;;;;;12.00;2.08;;;12.90;78.70;;;;;;5096383;28;20126;-77
2022/09/19 05:05:36;;;;;;;5.05;1.25;;;12.90;78.60;;;;;;5113200;28;20479;-76
2022/09/19 05:08:04;;;;;;;9.10;2.00;;;12.90;78.10;;;;;;5096395;28;20047;-77
2022/09/19 05:10:32;;;;;;;13.20;2.05;;;12.90;77.50;;;;;;5113345;28;20046;-77
2022/09/19 05:12:58;;;;;;;7.03;1.45;;;12.90;77.30;;;;;;5113115;28;20043;-76
2022/09/19 05:15:25;;;;;;;13.23;1.85;;;12.90;77.20;;;;;;5095934;28;20050;-77
2022/09/19 05:17:55;;;;;;;7.28;2.30;;;12.80;77.10;;;;;;5112442;28;20496;-77
2022/09/19 05:20:27;;;;;;;11.13;1.83;;;12.80;76.80;;;;;;5112788;28;20052;-77
2022/09/19 05:22:58;;;;;;;4.72;1.20;;;12.70;76.60;;;;;;5095938;28;20036;-77
2022/09/19 05:25:29;;;;;;;7.60;1.35;;;12.80;76.20;;;;;;5113087;28;20356;-77
2022/09/19 05:28:04;;;;;;;8.02;1.45;;;12.70;76.20;;;;;;5112862;28;20134;-77
2022/09/19 05:30:31;;;;;;;5.22;1.13;;;12.70;76.30;;;;;;5112667;28;20044;-77
2022/09/19 05:32:57;;;;;;;5.22;1.63;;;12.70;76.10;;;;;;5112474;28;20055;-77
2022/09/19 05:35:23;;;;;;;8.07;1.88;;;12.70;75.80;;;;;;5112744;28;20126;-77
2022/09/19 05:37:49;;;;;;;7.95;1.52;;;12.80;75.80;;;;;;5112805;28;20062;-77
2022/09/19 05:40:18;;;;;;;9.07;1.95;;;12.80;76.00;;;;;;5112795;28;20040;-77
2022/09/19 05:42:49;;;;;;;6.70;1.67;;;12.80;76.20;;;;;;5112635;28;20472;-77
2022/09/19 05:45:15;;;;;;;7.18;1.33;;;12.80;76.00;;;;;;5096406;28;20483;-76
2022/09/19 05:47:41;;;;;;;9.10;1.98;;;12.90;76.00;;;;;;5112424;28;20054;-76
2022/09/19 05:50:08;;;;;;;8.70;2.05;;;12.90;76.20;;;;;;5112451;28;20039;-77
2022/09/19 05:55:23;;;;;;;7.55;1.20;;;13.00;76.90;;;;;;5112286;28;20139;-76
2022/09/19 05:57:54;;;;;;;6.82;1.90;;;13.00;77.20;;;;;;5112755;28;20058;-76
2022/09/19 06:00:25;;;;;;;3.88;1.35;;;13.00;77.30;;;;;;5112475;28;20047;-76
2022/09/19 06:03:00;;;;;;;8.35;1.88;;;13.10;77.30;;;;;;5114941;28;20123;-76
2022/09/19 06:05:28;;;;;;;9.88;1.88;;;13.20;77.40;;;;;;5116565;28;20047;-76
2022/09/19 06:07:58;;;;;;;12.05;1.83;;;13.20;77.40;;;;;;5116852;28;20429;-76
2022/09/19 06:10:25;;;;;;;8.13;2.05;;;13.30;77.40;;;;;;5116432;28;20108;-76
2022/09/19 06:12:54;;;;;;;7.63;1.70;;;13.30;77.50;;;;;;5116731;28;20495;-76
2022/09/19 06:15:20;;;;;;;8.48;1.70;;;13.40;77.50;;;;;;5116497;28;20492;-79
2022/09/19 06:17:48;;;;;;;12.65;2.60;;;13.30;77.70;;;;;;5099424;28;20047;-76
2022/09/19 06:20:15;;;;;;;10.93;2.70;;;13.30;77.80;;;;;;5099965;28;20035;-77
2022/09/19 06:22:41;;;;;;;7.70;2.15;;;13.30;77.70;;;;;;5116411;28;20039;-76
2022/09/19 06:25:07;;;;;;;9.90;1.80;;;13.40;77.40;;;;;;5099305;28;20047;-76
2022/09/19 06:27:33;;;;;;;7.75;1.52;;;13.30;77.00;;;;;;5099399;28;20039;-76
2022/09/19 06:29:59;;;;;;;6.72;1.27;;;13.30;77.10;;;;;;5097301;28;20054;-76
2022/09/19 06:32:25;;;;;;;7.13;1.42;;;13.30;76.80;;;;;;5111717;28;20047;-76
2022/09/19 06:34:51;;;;;;;6.35;1.42;;;13.30;76.40;;;;;;5111362;28;20052;-76
2022/09/19 06:37:16;;;;;;;5.53;1.60;;;13.40;75.30;;;;;;5110932;28;20036;-75
2022/09/19 06:39:42;;;;;;;11.48;1.80;;;13.40;75.00;;;;;;5110734;28;20047;-75
2022/09/19 06:42:08;;;;;;;8.15;1.20;;;13.50;74.70;;;;;;5074817;28;20047;-75
2022/09/19 06:44:33;;;;;;;9.77;1.67;;;13.50;74.40;;;;;;5110856;28;20039;-75
2022/09/19 06:46:59;;;;;;;9.57;1.90;;;13.50;74.20;;;;;;5110531;28;20066;-74
2022/09/19 06:49:27;;;;;;;10.95;1.75;;;13.60;74.10;;;;;;5110656;28;20077;-75
2022/09/19 06:51:54;;;;;;;12.25;2.47;;;13.60;74.10;;;;;;5115281;28;20116;-75
2022/09/19 06:54:22;;;;;;;7.20;1.60;;;13.60;74.30;;;;;;5115611;28;20483;-75
2022/09/19 06:56:49;;;;;;;6.47;1.27;;;13.60;74.60;;;;;;5115772;28;20047;-75
2022/09/19 06:59:17;;;;;;;5.70;1.30;;;13.60;74.70;;;;;;5115592;28;20120;-76
2022/09/19 07:01:45;;;;;;;9.23;2.28;;;13.60;74.80;;;;;;5115501;28;20040;-76
2022/09/19 07:04:11;;;;;;;9.23;1.58;;;13.60;75.10;;;;;;5115831;28;20035;-78
2022/09/19 07:06:37;;;;;;;7.30;1.58;;;13.60;75.20;;;;;;5115656;28;20484;-77
2022/09/19 07:09:04;;;;;;;7.75;1.30;;;13.70;75.20;;;;;;5115372;28;20051;-77
2022/09/19 07:11:30;;;;;;;8.23;1.55;;;13.60;75.30;;;;;;5115584;28;20043;-78
2022/09/19 07:13:56;;;;;;;9.23;1.73;;;13.70;75.50;;;;;;5114330;28;20126;-77
2022/09/19 07:16:22;;;;;;;6.95;2.70;;;13.70;75.30;;;;;;5115170;28;20039;-75
2022/09/19 07:18:48;;;;;;;6.93;1.20;;;13.80;75.10;;;;;;5115068;28;20391;-75
2022/09/19 07:21:14;;;;;;;10.38;2.40;;;13.80;74.90;;;;;;5114682;28;20040;-77
2022/09/19 07:23:39;;;;;;;7.00;1.67;;;13.80;74.70;;;;;;5114766;28;20040;-76
2022/09/19 07:26:05;;;;;;;13.55;1.65;;;13.90;74.60;;;;;;5097667;28;20045;-76
2022/09/19 07:28:32;;;;;;;9.77;1.80;;;14.00;74.30;;;;;;5097837;28;20039;-77
2022/09/19 07:30:59;;;;;;;6.68;1.88;;;14.00;74.30;;;;;;5097697;28;20039;-77
2022/09/19 07:33:25;;;;;;;11.02;2.53;;;14.10;73.60;;;;;;5097577;28;20392;-77
2022/09/19 07:35:54;;;;;;;8.02;1.80;;;14.30;72.90;;;;;;5114226;28;20042;-76
2022/09/19 07:38:21;;;;;;;5.50;1.08;;;14.40;73.20;;;;;;5114663;28;20093;-77
2022/09/19 07:40:48;;;;;;;20.27;2.13;;;14.50;72.70;;;;;;5114424;28;20039;-77
2022/09/19 07:43:16;;;;;;;9.18;1.80;;;14.50;73.00;;;;;;5114320;28;20111;-77
2022/09/19 07:45:52;;;;;;;13.07;2.03;;;14.60;73.40;;;;;;5114466;28;20036;-77
2022/09/19 07:48:19;;;;;;;9.55;1.70;;;14.70;73.60;;;;;;5114257;28;20221;-77
2022/09/19 07:50:47;;;;;;;7.22;1.55;;;14.90;73.00;;;;;;5114252;28;20126;-76
2022/09/19 07:53:18;;;;;;;7.78;2.13;;;14.90;72.50;;;;;;5097465;28;20043;-76
2022/09/19 07:55:51;;;;;;;7.30;1.30;;;15.00;72.50;;;;;;5096939;28;20047;-77
2022/09/19 07:58:19;;;;;;;10.45;2.38;;;15.10;72.90;;;;;;5114462;28;20044;-76
2022/09/19 08:00:49;;;;;;;7.20;2.03;;;15.20;73.20;;;;;;5114548;28;20103;-76
2022/09/19 08:03:17;;;;;;;9.57;2.15;;;15.20;73.60;;;;;;5114068;28;20045;-77
2022/09/19 08:05:45;;;;;;;9.35;2.03;;;15.30;73.80;;;;;;5113860;28;20040;-77
2022/09/19 08:08:13;;;;;;;14.88;2.10;;;15.40;73.00;;;;;;5114013;28;20097;-77
2022/09/19 08:10:40;;;;;;;10.57;2.30;;;15.40;72.70;;;;;;5114179;28;20118;-77
2022/09/19 08:13:07;;;;;;;10.35;2.55;;;15.50;72.80;;;;;;5113807;28;20049;-76
2022/09/19 08:15:34;;;;;;;11.77;3.10;;;15.50;72.80;;;;;;5113649;28;20429;-77
2022/09/19 08:18:01;;;;;;;8.30;2.22;;;15.60;72.20;;;;;;5113442;28;20039;-76
2022/09/19 08:20:29;;;;;;;11.68;2.70;;;15.60;72.50;;;;;;5096699;28;20036;-76
2022/09/19 08:23:09;;;;;;;13.25;2.75;;;15.70;72.40;;;;;;5113649;28;20141;-77
2022/09/19 08:25:41;;;;;;;12.40;1.88;;;15.70;71.90;;;;;;5113351;28;20043;-76
2022/09/19 08:28:07;;;;;;;9.88;2.58;;;15.80;72.60;;;;;;5113839;28;20048;-76
2022/09/19 08:30:34;;;;;;;9.10;3.40;;;15.80;71.20;;;;;;5113509;28;20044;-76
2022/09/19 08:33:01;;;;;;;9.18;2.80;;;15.80;71.00;;;;;;5113523;28;20059;-77
2022/09/19 08:35:29;;;;;;;10.35;2.35;;;15.90;70.40;;;;;;5113443;28;20470;-77
2022/09/19 08:37:57;;;;;;;13.32;3.20;;;15.90;70.40;;;;;;5113353;28;20040;-77
2022/09/19 08:40:35;;;;;;;9.40;2.38;;;16.00;70.30;;;;;;5113522;28;20031;-76
2022/09/19 08:43:30;;;;;;;14.23;3.20;;;16.00;70.20;;;;;;5113269;28;20096;-77
2022/09/19 08:46:20;;;;;;;12.77;2.92;;;16.10;69.60;;;;;;5113402;28;20395;-76
2022/09/19 08:49:04;;;;;;;9.00;2.55;;;16.10;70.90;;;;;;5113109;28;20039;-77
2022/09/19 08:52:01;;;;;;;12.05;2.28;;;16.20;71.80;;;;;;5113119;28;20035;-76
2022/09/19 08:54:45;;;;;;;10.38;2.55;;;16.30;71.40;;;;;;5092804;28;20125;-77
2022/09/19 08:57:27;;;;;;;11.23;2.17;;;16.30;69.50;;;;;;5112781;28;20403;-77
2022/09/19 09:00:07;;;;;;;11.90;2.97;;;16.10;69.40;;;;;;5113259;28;20379;-75
2022/09/19 09:03:01;;;;;;;10.18;2.20;;;16.00;70.00;;;;;;5112530;28;20036;-75
2022/09/19 09:05:44;;;;;;;11.32;2.03;;;16.00;73.20;;;;;;5112155;28;20075;-75
2022/09/19 09:08:29;;;;;;;10.05;2.30;;;15.90;74.40;;;;;;5112767;28;20039;-75
2022/09/19 09:11:07;;;;;;;9.65;2.72;;;15.70;74.80;;;;;;5112872;28;20126;-75
2022/09/19 09:13:42;;;;;;;7.72;2.13;;;15.50;74.50;;;;;;5112643;28;20051;-74
2022/09/19 09:16:34;;;;;;;12.13;2.92;;;15.30;73.50;;;;;;5112818;28;20040;-75
2022/09/19 09:19:27;;;;;;;13.32;2.33;;;15.00;73.60;;;;;;5112989;28;20391;-75
2022/09/19 09:22:26;;;;;;;7.60;2.30;;;14.90;74.40;;;;;;5094763;28;20579;-75
2022/09/19 09:25:12;;;;;;;13.43;2.30;;;14.90;75.40;;;;;;5095454;28;20047;-75
2022/09/19 09:28:10;;;;;;;9.57;2.13;;;14.90;76.50;;;;;;5112758;28;20388;-75
2022/09/19 09:30:44;;;;;;;11.63;2.97;;;14.90;77.00;;;;;;5112300;28;20046;-75
2022/09/19 09:33:27;;;;;;;14.50;2.80;;;14.80;77.70;;;;;;5112308;28;20061;-75
2022/09/19 09:36:06;;;;;;;11.05;2.60;;;14.80;78.10;;;;;;5111868;28;20048;-76
2022/09/19 09:38:57;;;;;;;15.20;2.83;;;14.80;78.30;;;;;;5111887;28;20457;-76
2022/09/19 09:41:51;;;;;;;12.73;2.90;;;14.70;78.40;;;;;;5112153;28;20043;-75
2022/09/19 09:44:43;;;;;;;8.57;2.13;;;15.00;79.30;;;;;;5112219;28;20040;-74
2022/09/19 09:47:24;;;;;;;13.05;2.47;;;15.20;78.30;;;;;;5112330;28;20086;-78
2022/09/19 09:49:55;;;;;;;7.55;1.88;;;15.50;77.70;;;;;;5112149;28;20048;-75
2022/09/19 09:52:50;;;;;;;15.32;3.78;;;15.70;77.60;;;;;;5112030;28;20138;-77
2022/09/19 09:58:36;;;;;;;10.85;2.55;;;15.80;76.80;;;;;;5111933;28;20055;-75
2022/09/19 10:04:45;;;;;;;11.50;2.13;;;16.30;76.10;;;;;;5111898;28;20152;-75
2022/09/19 10:07:39;;;;;;;10.68;2.50;;;16.50;75.40;;;;;;5095146;28;20043;-75
2022/09/19 10:10:14;;;;;;;13.63;3.43;;;16.70;74.90;;;;;;5111920;28;20376;-75
2022/09/19 10:12:59;;;;;;;13.68;2.10;;;17.00;74.50;;;;;;5112212;28;20368;-76
2022/09/19 10:15:25;;;;;;;;;;;17.00;73.10;;;;;;5112527;28;20426;-75
2022/09/19 10:18:07;;;;;;;9.07;2.15;;;16.90;72.40;;;;;;5094805;28;20043;-75
2022/09/19 10:20:51;;;;;;;12.50;2.72;;;16.80;71.50;;;;;;5111774;28;20040;-75
2022/09/19 10:23:30;;;;;;;11.52;2.50;;;16.60;69.30;;;;;;5112054;28;20043;-75
2022/09/19 10:26:04;;;;;;;9.52;3.03;;;16.50;69.00;;;;;;5111942;28;20035;-76
2022/09/19 10:28:51;;;;;;;12.18;3.20;;;16.40;68.40;;;;;;5111874;28;20483;-76
2022/09/19 10:31:34;;;;;;;7.18;1.50;;;16.30;69.50;;;;;;5112141;28;20360;-76
2022/09/19 10:34:14;;;;;;;9.75;2.25;;;16.40;68.50;;;;;;5111510;28;20133;-75
2022/09/19 10:36:47;;;;;;;7.50;2.50;;;16.20;68.10;;;;;;5111698;28;20118;-75
2022/09/19 10:39:17;;;;;;;10.27;2.70;;;16.00;72.10;;;;;;5111635;28;20079;-76
2022/09/19 10:41:43;;;;;;;12.57;2.53;;;15.60;73.60;;;;;;5111748;28;20331;-76
2022/09/19 10:44:27;;;;;;;10.18;2.00;;;15.30;75.80;;;;;;5111949;28;20059;-75
2022/09/19 10:46:58;;;;;;;7.60;2.15;;;15.00;77.90;;;;;;5111613;28;20126;-77
2022/09/19 10:49:42;;;;;;;7.28;2.35;;;14.80;79.30;;;;;;5115106;28;20122;-77
2022/09/19 10:52:08;;;;;;;8.93;1.92;;;14.60;80.10;;;;;;5098541;28;20043;-76
2022/09/19 10:54:41;;;;;;;6.55;2.25;;;14.50;80.70;;;;;;5115235;28;20047;-76
2022/09/19 10:57:32;;;;;;;14.02;2.30;;;14.50;80.50;;;;;;5115239;28;20075;-77
2022/09/19 11:00:03;;;;;;;8.05;2.45;;;14.50;80.60;;;;;;5115594;28;20377;-76
2022/09/19 11:02:29;;;;;;;10.30;1.70;;;14.40;80.50;;;;;;5115319;28;20507;-77
2022/09/19 11:05:02;;;;;;;14.15;2.63;;;14.30;80.20;;;;;;5115092;28;20047;-77
2022/09/19 11:07:43;;;;;;;8.70;2.22;;;14.30;80.90;;;;;;5115257;28;20032;-77
2022/09/19 11:10:32;;;;;;;6.63;1.38;;;14.10;81.30;;;;;;5115108;28;20077;-77
2022/09/19 11:13:10;;;;;;;9.05;1.83;;;14.10;81.70;;;;;;5098417;28;20040;-78
2022/09/19 11:15:49;;;;;;;11.07;2.47;;;14.10;81.50;;;;;;5114882;28;20437;-76
2022/09/19 11:18:43;;;;;;;14.65;2.03;;;14.20;81.50;;;;;;5114935;28;20126;-76
2022/09/19 11:21:30;;;;;;;10.13;2.17;;;14.30;82.00;;;;;;5114861;28;20555;-76
2022/09/19 11:24:03;;;;;;;9.05;2.03;;;14.60;81.90;;;;;;5114810;28;20092;-76
2022/09/19 11:27:00;;;;;;;13.07;2.60;;;14.80;81.00;;;;;;5115044;28;20039;-77
2022/09/19 11:29:57;;;;;;;9.18;2.72;;;14.90;80.90;;;;;;5114668;28;20035;-76
2022/09/19 11:32:53;;;;;;;13.48;2.63;;;15.10;79.80;;;;;;5114684;28;20039;-77
2022/09/19 11:35:32;;;;;;;8.63;2.30;;;15.30;79.50;;;;;;5074068;28;20378;-77
2022/09/19 11:38:26;;;;;;;12.75;2.28;;;15.30;78.30;;;;;;5073955;28;20050;-76
2022/09/19 11:41:15;;;;;;;8.10;1.65;;;15.30;77.60;;;;;;5074017;28;20045;-76
2022/09/19 11:43:58;;;;;;;9.55;2.35;;;15.40;77.90;;;;;;5073792;28;20094;-77
2022/09/19 11:46:40;;;;;;;9.05;1.90;;;15.50;78.10;;;;;;5073624;28;20491;-77
2022/09/19 11:49:36;;;;;;;6.88;1.98;;;15.70;78.30;;;;;;5073705;28;20041;-76
2022/09/19 11:52:34;;;;;;;16.13;3.20;;;15.70;77.00;;;;;;5073599;28;20086;-76
2022/09/19 11:55:25;;;;;;;10.88;2.40;;;15.60;77.60;;;;;;5064790;28;20051;-76
2022/09/19 11:58:12;;;;;;;10.10;2.17;;;15.60;77.30;;;;;;5073485;28;20500;-77
2022/09/19 12:00:54;;;;;;;6.63;1.85;;;15.60;76.90;;;;;;5072858;28;20068;-76
2022/09/19 12:03:24;;;;;;;7.10;1.95;;;15.90;77.40;;;;;;5056804;28;20044;-76
2022/09/19 12:06:03;;;;;;;9.77;2.13;;;16.10;75.60;;;;;;5056675;28;20049;-75
2022/09/19 12:08:47;;;;;;;7.57;1.75;;;16.20;74.90;;;;;;5073677;28;20079;-76
2022/09/19 12:11:20;;;;;;;8.80;2.35;;;16.20;74.60;;;;;;5073537;28;20079;-77
2022/09/19 12:13:59;;;;;;;10.70;2.63;;;16.30;75.40;;;;;;5073189;28;20040;-76
2022/09/19 12:16:42;;;;;;;8.82;1.90;;;16.30;74.50;;;;;;5073225;28;20106;-76
2022/09/19 12:19:23;;;;;;;10.38;2.83;;;16.20;73.90;;;;;;5056436;28;20491;-76
2022/09/19 12:21:53;;;;;;;8.90;2.42;;;16.30;74.10;;;;;;5073351;28;20052;-77
2022/09/19 12:27:33;;;;;;;6.28;1.90;;;16.50;73.80;;;;;;5073081;28;20044;-76
2022/09/19 12:30:19;;;;;;;11.15;1.90;;;16.80;72.80;;;;;;5072911;28;20120;-76
2022/09/19 12:33:06;;;;;;;4.97;1.02;;;17.20;71.30;;;;;;5076400;28;20044;-77
2022/09/19 12:35:42;;;;;;;6.35;1.10;;;17.30;67.00;;;;;;5096259;28;20543;-76
2022/09/19 12:38:16;;;;;;;5.22;1.33;;;17.10;66.20;;;;;;5113331;28;20081;-76
2022/09/19 12:41:21;;;;;;;7.93;2.03;;;17.10;67.90;;;;;;5113568;28;20377;-76
2022/09/19 12:44:34;;;;;;;6.00;1.30;;;17.30;67.20;;;;;;5112472;28;20043;-76
2022/09/19 12:47:37;;;;;;;6.47;1.77;;;17.50;67.60;;;;;;5113330;28;20534;-76
2022/09/19 12:50:20;;;;;;;11.55;3.00;;;17.70;66.50;;;;;;5113152;28;20046;-75
2022/09/19 12:53:28;;;;;;;11.80;1.70;;;18.00;65.80;;;;;;5113030;28;20498;-75
2022/09/19 12:56:01;;;;;;;14.85;2.40;;;18.10;64.10;;;;;;5112851;28;20043;-76
2022/09/19 12:58:58;;;;;;;12.90;3.15;;;18.20;63.60;;;;;;5095945;28;20044;-76
2022/09/19 13:01:43;;;;;;;10.05;2.80;;;18.40;63.00;;;;;;5113169;28;20043;-76
2022/09/19 13:04:30;;;;;;;8.45;2.25;;;18.30;63.20;;;;;;5112892;28;20058;-76
2022/09/19 13:07:09;;;;;;;7.68;1.80;;;18.20;62.90;;;;;;5112762;28;20040;-76
2022/09/19 13:09:51;;;;;;;10.75;2.58;;;18.00;60.60;;;;;;5113024;28;20372;-76
2022/09/19 13:12:40;;;;;;;9.20;2.88;;;18.10;61.90;;;;;;5111845;28;20075;-76
2022/09/19 13:15:19;;;;;;;10.30;2.42;;;18.20;59.40;;;;;;5112723;28;20404;-76
2022/09/19 13:23:31;;;;;;;9.43;2.03;;;18.30;56.10;;;;;;5112771;28;20118;-76
2022/09/19 13:26:16;;;;;;;10.68;2.25;;;18.40;56.20;;;;;;5112431;28;20048;-77
2022/09/19 13:28:50;;;;;;;21.83;1.95;;;18.50;57.10;;;;;;5112381;28;20035;-76
2022/09/19 13:31:17;;;;;;;8.27;1.67;;;18.50;54.40;;;;;;5112563;28;20039;-76
2022/09/19 13:33:49;;;;;;;8.70;1.90;;;18.50;54.00;;;;;;5112103;28;20063;-76
2022/09/19 13:36:35;;;;;;;10.23;2.70;;;18.60;55.80;;;;;;5112225;28;20492;-77
2022/09/19 13:39:00;;;;;;;4.88;1.58;;;18.70;53.10;;;;;;5112071;28;20036;-77
2022/09/19 13:41:53;;;;;;;9.02;1.77;;;18.90;53.50;;;;;;5112497;28;20131;-77
2022/09/19 13:44:42;;;;;;;7.28;1.40;;;18.90;53.70;;;;;;5112248;28;20047;-77